Time;durP1;ratioP1;P1;durP2;ratioP2;P2;SDS_P1;SDS_P2;PMS_P1;PMS_P2;Temp;Humidity;BMP_temperature;BMP_pressure;BME280_temperature;BME280_humidity;BME280_pressure;Samples;Min_cycle;Max_cycle;Signal;HPM_P1;HPM_P2
2023/05/22 00:00:20;;;;;;;32.60;26.10;;;;;;;;;;4958427;29;20383;-73
2023/05/22 00:02:47;;;;;;;29.67;26.57;;;;;;;;;;4957497;28;20392;-73
2023/05/22 00:05:14;;;;;;;31.60;25.63;;;;;;;;;;4957508;29;20462;-74
2023/05/22 00:07:44;;;;;;;28.63;25.37;;;;;;;;;;4957748;29;20398;-73
2023/05/22 00:10:10;;;;;;;30.20;26.97;;;;;;;;;;4957925;29;20412;-73
2023/05/22 00:12:36;;;;;;;28.40;25.43;;;;;;;;;;4957977;29;20387;-73
2023/05/22 00:15:03;;;;;;;28.13;24.27;;;;;;;;;;4957410;29;20397;-74
2023/05/22 00:17:29;;;;;;;27.37;22.63;;;;;;;;;;4957893;29;20444;-73
2023/05/22 00:20:01;;;;;;;29.80;25.90;;;;;;;;;;4957723;29;20414;-74
2023/05/22 00:22:27;;;;;;;32.43;28.03;;;;;;;;;;4957329;29;20379;-73
2023/05/22 00:24:53;;;;;;;31.97;27.60;;;;;;;;;;4957381;29;20452;-75
2023/05/22 00:27:19;;;;;;;33.30;28.47;;;;;;;;;;4957631;29;20391;-73
2023/05/22 00:29:45;;;;;;;34.57;30.30;;;;;;;;;;4957935;29;20401;-74
2023/05/22 00:32:11;;;;;;;34.20;30.33;;;;;;;;;;4957155;29;20402;-72
2023/05/22 00:34:37;;;;;;;33.00;27.23;;;;;;;;;;4957714;29;20395;-72
2023/05/22 00:37:03;;;;;;;32.23;28.63;;;;;;;;;;4957458;29;20404;-73
2023/05/22 00:39:29;;;;;;;36.40;26.90;;;;;;;;;;4957400;29;20408;-73
2023/05/22 00:41:55;;;;;;;33.10;28.33;;;;;;;;;;4957486;29;20479;-73
2023/05/22 00:44:22;;;;;;;31.73;25.23;;;;;;;;;;4958034;29;20827;-73
2023/05/22 00:46:48;;;;;;;34.70;26.83;;;;;;;;;;4957755;29;20420;-73
2023/05/22 00:49:14;;;;;;;30.47;27.20;;;;;;;;;;4957269;29;20406;-73
2023/05/22 00:51:40;;;;;;;32.47;27.27;;;;;;;;;;4957470;29;20455;-73
2023/05/22 00:54:06;;;;;;;35.50;27.60;;;;;;;;;;4940151;29;20936;-73
2023/05/22 00:56:33;;;;;;;30.20;26.77;;;;;;;;;;4957781;29;20499;-73
2023/05/22 00:58:59;;;;;;;35.37;28.03;;;;;;;;;;4957239;29;20412;-73
2023/05/22 01:01:32;;;;;;;33.37;28.00;;;;;;;;;;4958108;29;20398;-73
2023/05/22 01:03:58;;;;;;;31.83;27.07;;;;;;;;;;4957508;29;20500;-74
2023/05/22 01:06:25;;;;;;;33.07;26.83;;;;;;;;;;4957991;29;20459;-73
2023/05/22 01:08:51;;;;;;;34.10;28.60;;;;;;;;;;4958093;29;20499;-73
2023/05/22 01:11:23;;;;;;;30.80;25.50;;;;;;;;;;4957577;29;20417;-73
2023/05/22 01:14:18;;;;;;;33.17;27.23;;;;;;;;;;4959654;28;20436;-73
2023/05/22 01:16:47;;;;;;;35.03;29.60;;;;;;;;;;4925935;29;20461;-73
2023/05/22 01:19:16;;;;;;;32.50;27.33;;;;;;;;;;4961745;29;20403;-73
2023/05/22 01:21:45;;;;;;;35.50;28.30;;;;;;;;;;4960746;29;20416;-73
2023/05/22 01:24:20;;;;;;;34.57;26.23;;;;;;;;;;4961308;29;20934;-74
2023/05/22 01:27:02;;;;;;;34.37;29.03;;;;;;;;;;4961466;29;20408;-73
2023/05/22 01:29:28;;;;;;;40.03;29.53;;;;;;;;;;4961074;29;20420;-73
2023/05/22 01:31:55;;;;;;;38.30;28.37;;;;;;;;;;4960593;29;20885;-74
2023/05/22 01:34:21;;;;;;;36.30;29.03;;;;;;;;;;4960999;29;20391;-73
2023/05/22 01:36:48;;;;;;;32.40;28.20;;;;;;;;;;4960880;29;20400;-73
2023/05/22 01:39:14;;;;;;;34.90;27.67;;;;;;;;;;4960832;29;20430;-73
2023/05/22 01:41:40;;;;;;;34.57;28.73;;;;;;;;;;4960305;29;20929;-73
2023/05/22 01:44:06;;;;;;;41.20;31.07;;;;;;;;;;4960475;29;20455;-73
2023/05/22 01:46:32;;;;;;;39.10;31.13;;;;;;;;;;4960992;29;20410;-72
2023/05/22 01:48:58;;;;;;;39.40;31.90;;;;;;;;;;4960787;29;20391;-73
2023/05/22 01:51:27;;;;;;;39.07;31.37;;;;;;;;;;4960429;29;20923;-73
2023/05/22 01:53:53;;;;;;;37.03;30.10;;;;;;;;;;4960881;29;20435;-73
2023/05/22 01:56:29;;;;;;;34.87;29.83;;;;;;;;;;4960386;29;20413;-73
2023/05/22 01:59:09;;;;;;;42.23;32.33;;;;;;;;;;4961218;29;20378;-73
2023/05/22 02:01:36;;;;;;;37.10;30.00;;;;;;;;;;4961409;29;20412;-73
2023/05/22 02:04:03;;;;;;;41.67;32.23;;;;;;;;;;4960540;29;20435;-73
2023/05/22 02:06:31;;;;;;;41.00;33.07;;;;;;;;;;4960830;29;20883;-73
2023/05/22 02:08:58;;;;;;;39.37;30.50;;;;;;;;;;4960307;29;20437;-74
2023/05/22 02:11:26;;;;;;;46.03;32.33;;;;;;;;;;4961121;29;20438;-73
2023/05/22 02:13:52;;;;;;;33.50;26.83;;;;;;;;;;4960865;29;20399;-73
2023/05/22 02:16:20;;;;;;;44.37;33.33;;;;;;;;;;4960414;29;20859;-73
2023/05/22 02:18:47;;;;;;;48.70;34.53;;;;;;;;;;4960243;29;20895;-73
2023/05/22 02:21:13;;;;;;;38.77;31.60;;;;;;;;;;4958948;29;20409;-73
2023/05/22 02:23:39;;;;;;;43.90;34.17;;;;;;;;;;4959534;29;20856;-73
2023/05/22 02:26:05;;;;;;;42.83;34.33;;;;;;;;;;4959156;28;20635;-73
2023/05/22 02:28:33;;;;;;;39.90;31.43;;;;;;;;;;4960022;29;20438;-73
2023/05/22 02:30:59;;;;;;;42.07;32.83;;;;;;;;;;4959807;29;20943;-73
2023/05/22 02:33:25;;;;;;;39.30;31.30;;;;;;;;;;4943001;29;20444;-73
2023/05/22 02:35:51;;;;;;;39.43;32.23;;;;;;;;;;4960124;29;20398;-73
2023/05/22 02:38:17;;;;;;;51.27;35.60;;;;;;;;;;4959784;29;20409;-73
2023/05/22 02:40:43;;;;;;;43.03;33.50;;;;;;;;;;4960019;29;20409;-73
2023/05/22 02:43:09;;;;;;;47.50;35.20;;;;;;;;;;4960297;29;20379;-73
2023/05/22 02:45:35;;;;;;;40.77;33.73;;;;;;;;;;4959163;29;20471;-73
2023/05/22 02:48:02;;;;;;;44.80;35.20;;;;;;;;;;4959347;29;20424;-73
2023/05/22 02:50:28;;;;;;;44.20;35.10;;;;;;;;;;4959581;29;20560;-73
2023/05/22 02:52:54;;;;;;;39.83;31.47;;;;;;;;;;4959680;29;20433;-73
2023/05/22 02:55:20;;;;;;;35.87;29.50;;;;;;;;;;4959550;29;20395;-72
2023/05/22 02:57:47;;;;;;;43.50;31.77;;;;;;;;;;4960116;29;20816;-73
2023/05/22 03:00:13;;;;;;;42.07;31.70;;;;;;;;;;4959548;29;20437;-73
2023/05/22 03:02:39;;;;;;;46.00;32.90;;;;;;;;;;4959687;29;20803;-74
2023/05/22 03:05:06;;;;;;;39.80;31.87;;;;;;;;;;4959151;29;20527;-73
2023/05/22 03:07:33;;;;;;;41.43;32.43;;;;;;;;;;4959609;29;20390;-73
2023/05/22 03:09:59;;;;;;;40.17;32.87;;;;;;;;;;4959327;29;20769;-73
2023/05/22 03:12:25;;;;;;;37.80;30.87;;;;;;;;;;4959372;29;20415;-73
2023/05/22 03:14:51;;;;;;;43.13;34.13;;;;;;;;;;4959957;29;20376;-73
2023/05/22 03:17:17;;;;;;;42.30;32.53;;;;;;;;;;4959256;29;20383;-73
2023/05/22 03:19:43;;;;;;;37.77;32.00;;;;;;;;;;4959601;29;20420;-73
2023/05/22 03:22:09;;;;;;;37.27;30.93;;;;;;;;;;4959146;29;20393;-73
2023/05/22 03:24:35;;;;;;;40.50;31.67;;;;;;;;;;4959367;29;20558;-73
2023/05/22 03:27:01;;;;;;;40.47;31.90;;;;;;;;;;4959211;29;20430;-74
2023/05/22 03:29:27;;;;;;;39.10;30.90;;;;;;;;;;4958927;29;20383;-73
2023/05/22 03:31:54;;;;;;;39.50;31.87;;;;;;;;;;4959799;29;20927;-73
2023/05/22 03:34:21;;;;;;;36.97;29.00;;;;;;;;;;4958928;29;20412;-73
2023/05/22 03:36:47;;;;;;;44.73;33.00;;;;;;;;;;4958444;28;20940;-73
2023/05/22 03:39:13;;;;;;;45.17;34.00;;;;;;;;;;4959053;29;20386;-73
2023/05/22 03:41:39;;;;;;;50.53;37.90;;;;;;;;;;4959341;29;20955;-73
2023/05/22 03:44:05;;;;;;;49.23;37.17;;;;;;;;;;4958905;29;20464;-74
2023/05/22 03:46:31;;;;;;;54.60;37.40;;;;;;;;;;4959323;29;20424;-73
2023/05/22 03:48:57;;;;;;;52.97;40.00;;;;;;;;;;4959031;29;20421;-73
2023/05/22 03:51:23;;;;;;;54.63;40.80;;;;;;;;;;4958745;29;20464;-73
2023/05/22 03:53:49;;;;;;;54.70;38.70;;;;;;;;;;4959480;29;20423;-73
2023/05/22 03:56:16;;;;;;;54.77;40.60;;;;;;;;;;4958813;29;20412;-73
2023/05/22 03:58:42;;;;;;;58.47;42.20;;;;;;;;;;4959035;29;20412;-73
2023/05/22 04:01:08;;;;;;;58.40;40.27;;;;;;;;;;4959042;29;20389;-73
2023/05/22 04:03:35;;;;;;;59.70;42.67;;;;;;;;;;4958957;29;20413;-73
2023/05/22 04:06:02;;;;;;;63.73;45.10;;;;;;;;;;4959186;29;20934;-73
2023/05/22 04:08:29;;;;;;;59.13;42.60;;;;;;;;;;4958733;29;20420;-73
2023/05/22 04:10:55;;;;;;;62.30;42.00;;;;;;;;;;4959594;29;20933;-73
2023/05/22 04:13:21;;;;;;;55.40;41.00;;;;;;;;;;4959181;29;20413;-73
2023/05/22 04:15:48;;;;;;;56.33;40.80;;;;;;;;;;4959134;29;20408;-73
2023/05/22 04:18:15;;;;;;;62.77;42.07;;;;;;;;;;4959187;29;20417;-73
2023/05/22 04:20:41;;;;;;;60.27;42.60;;;;;;;;;;4959228;29;20925;-74
2023/05/22 04:23:08;;;;;;;56.07;41.67;;;;;;;;;;4959367;29;20946;-72
2023/05/22 04:25:35;;;;;;;57.07;42.40;;;;;;;;;;4959060;29;20478;-72
2023/05/22 04:28:02;;;;;;;67.57;44.70;;;;;;;;;;4959113;29;20417;-72
2023/05/22 04:30:28;;;;;;;54.90;40.47;;;;;;;;;;4959253;29;20442;-73
2023/05/22 04:32:56;;;;;;;59.77;43.63;;;;;;;;;;4959158;29;20401;-74
2023/05/22 04:35:22;;;;;;;61.87;44.03;;;;;;;;;;4959145;29;20487;-74
2023/05/22 04:37:49;;;;;;;58.43;41.97;;;;;;;;;;4959129;29;20395;-74
2023/05/22 04:40:15;;;;;;;58.47;40.37;;;;;;;;;;4958702;29;20417;-74
2023/05/22 04:42:41;;;;;;;60.30;41.87;;;;;;;;;;4959427;29;20422;-74
2023/05/22 04:45:07;;;;;;;62.93;44.20;;;;;;;;;;4959198;29;20464;-74
2023/05/22 04:47:33;;;;;;;65.63;42.30;;;;;;;;;;4960541;28;20448;-74
2023/05/22 04:50:01;;;;;;;60.70;41.60;;;;;;;;;;4965222;28;20431;-74
2023/05/22 04:52:27;;;;;;;60.93;40.03;;;;;;;;;;4965821;29;20425;-74
2023/05/22 04:54:54;;;;;;;67.23;42.60;;;;;;;;;;4965438;28;20408;-74
2023/05/22 04:57:20;;;;;;;60.20;43.97;;;;;;;;;;4965053;29;20427;-74
2023/05/22 04:59:47;;;;;;;59.93;39.97;;;;;;;;;;4965606;29;20411;-74
2023/05/22 05:02:13;;;;;;;60.20;41.93;;;;;;;;;;4965109;28;20442;-75
2023/05/22 05:04:40;;;;;;;64.23;43.20;;;;;;;;;;4965090;28;20467;-74
2023/05/22 05:07:06;;;;;;;71.63;44.40;;;;;;;;;;4964722;28;20781;-74
2023/05/22 05:09:32;;;;;;;68.93;43.07;;;;;;;;;;4965166;28;20386;-74
2023/05/22 05:11:58;;;;;;;65.80;42.17;;;;;;;;;;4965081;28;20739;-74
2023/05/22 05:14:24;;;;;;;78.43;45.10;;;;;;;;;;4965511;29;20443;-74
2023/05/22 05:16:50;;;;;;;69.00;45.13;;;;;;;;;;4965286;28;20400;-74
2023/05/22 05:19:20;;;;;;;67.50;43.87;;;;;;;;;;4964621;28;20440;-74
2023/05/22 05:21:48;;;;;;;67.00;45.43;;;;;;;;;;4964728;28;20923;-74
2023/05/22 05:24:14;;;;;;;68.20;44.63;;;;;;;;;;4964417;29;20529;-74
2023/05/22 05:26:40;;;;;;;69.50;44.90;;;;;;;;;;4964676;29;20811;-74
2023/05/22 05:29:06;;;;;;;71.93;46.60;;;;;;;;;;4965264;28;20395;-74
2023/05/22 05:31:32;;;;;;;63.43;44.40;;;;;;;;;;4964638;29;20464;-74
2023/05/22 05:33:58;;;;;;;68.73;44.90;;;;;;;;;;4947831;29;20909;-74
2023/05/22 05:36:25;;;;;;;69.77;45.07;;;;;;;;;;4964652;28;20412;-74
2023/05/22 05:38:51;;;;;;;68.27;44.73;;;;;;;;;;4947882;28;20567;-74
2023/05/22 05:41:17;;;;;;;66.67;42.33;;;;;;;;;;4947541;29;20852;-73
2023/05/22 05:43:43;;;;;;;61.57;42.13;;;;;;;;;;4964459;29;20456;-74
2023/05/22 05:46:10;;;;;;;65.40;42.43;;;;;;;;;;4964867;28;20456;-76
2023/05/22 05:48:36;;;;;;;69.00;45.17;;;;;;;;;;4964775;29;21021;-74
2023/05/22 05:51:02;;;;;;;64.63;40.77;;;;;;;;;;4964829;28;20562;-74
2023/05/22 05:53:28;;;;;;;66.67;40.07;;;;;;;;;;4965039;29;20408;-74
2023/05/22 05:55:54;;;;;;;63.97;41.27;;;;;;;;;;4964289;29;20488;-74
2023/05/22 05:58:20;;;;;;;57.80;40.10;;;;;;;;;;4964663;29;20416;-74
2023/05/22 06:00:46;;;;;;;72.10;43.60;;;;;;;;;;4960717;28;20417;-74
2023/05/22 06:03:12;;;;;;;59.60;41.47;;;;;;;;;;4961406;29;20413;-74
2023/05/22 06:05:38;;;;;;;65.57;41.00;;;;;;;;;;4961826;29;20953;-74
2023/05/22 06:08:05;;;;;;;62.80;40.60;;;;;;;;;;4961763;29;20413;-74
2023/05/22 06:10:31;;;;;;;57.40;41.23;;;;;;;;;;4961324;29;20440;-74
2023/05/22 06:12:57;;;;;;;58.83;40.40;;;;;;;;;;4962257;29;20388;-74
2023/05/22 06:15:23;;;;;;;54.47;38.37;;;;;;;;;;4961554;29;20386;-74
2023/05/22 06:17:49;;;;;;;58.63;37.43;;;;;;;;;;4961513;29;20409;-75
2023/05/22 06:20:15;;;;;;;59.87;39.00;;;;;;;;;;4961241;29;20403;-75
2023/05/22 06:22:41;;;;;;;57.60;40.20;;;;;;;;;;4961605;29;20405;-75
2023/05/22 06:25:08;;;;;;;52.23;35.00;;;;;;;;;;4944626;29;20460;-74
2023/05/22 06:27:34;;;;;;;58.47;37.63;;;;;;;;;;4960980;29;20470;-74
2023/05/22 06:30:01;;;;;;;48.67;35.93;;;;;;;;;;4961567;29;20458;-74
2023/05/22 06:32:27;;;;;;;51.50;37.37;;;;;;;;;;4960438;29;20409;-74
2023/05/22 06:34:53;;;;;;;52.10;35.77;;;;;;;;;;4960991;29;20398;-74
2023/05/22 06:37:19;;;;;;;49.80;34.90;;;;;;;;;;4960638;29;20434;-74
2023/05/22 06:39:45;;;;;;;51.83;35.60;;;;;;;;;;4961065;29;20383;-74
2023/05/22 06:42:11;;;;;;;49.17;37.10;;;;;;;;;;4960918;29;20386;-74
2023/05/22 06:44:37;;;;;;;48.03;35.90;;;;;;;;;;4960511;29;20918;-74
2023/05/22 06:47:03;;;;;;;47.90;36.50;;;;;;;;;;4960453;29;20426;-74
2023/05/22 06:49:29;;;;;;;49.83;35.60;;;;;;;;;;4960469;29;20738;-74
2023/05/22 06:51:55;;;;;;;48.37;35.23;;;;;;;;;;4960408;29;20479;-74
2023/05/22 06:54:21;;;;;;;49.43;34.97;;;;;;;;;;4960151;29;20391;-74
2023/05/22 06:56:47;;;;;;;50.90;34.47;;;;;;;;;;4960590;29;20948;-74
2023/05/22 06:59:14;;;;;;;46.73;34.80;;;;;;;;;;4960531;29;20379;-76
2023/05/22 07:01:40;;;;;;;49.70;35.50;;;;;;;;;;4960823;29;20419;-74
2023/05/22 07:04:07;;;;;;;48.33;35.40;;;;;;;;;;4960112;29;20884;-74
2023/05/22 07:06:37;;;;;;;48.53;33.27;;;;;;;;;;4960350;29;20420;-74
2023/05/22 07:09:04;;;;;;;45.90;35.13;;;;;;;;;;4960738;29;20455;-74
2023/05/22 07:11:30;;;;;;;47.40;35.57;;;;;;;;;;4960502;28;20395;-74
2023/05/22 07:13:56;;;;;;;44.00;34.20;;;;;;;;;;4960260;29;20499;-72
2023/05/22 07:16:22;;;;;;;53.40;38.50;;;;;;;;;;4960120;29;20383;-72
2023/05/22 07:18:48;;;;;;;57.80;37.93;;;;;;;;;;4960023;29;20427;-74
2023/05/22 07:21:14;;;;;;;54.57;37.07;;;;;;;;;;4960218;29;20478;-73
2023/05/22 07:23:40;;;;;;;50.93;34.40;;;;;;;;;;4960440;29;20387;-72
2023/05/22 07:26:06;;;;;;;49.00;37.87;;;;;;;;;;4959789;29;20805;-74
2023/05/22 07:28:32;;;;;;;48.40;36.43;;;;;;;;;;4959581;29;20419;-75
2023/05/22 07:30:59;;;;;;;45.67;32.67;;;;;;;;;;4960106;29;20387;-74
2023/05/22 07:33:25;;;;;;;50.00;33.97;;;;;;;;;;4959649;29;20447;-74
2023/05/22 07:35:51;;;;;;;46.40;34.10;;;;;;;;;;4960361;29;20412;-74
2023/05/22 07:38:17;;;;;;;47.63;36.30;;;;;;;;;;4959751;29;20409;-74
2023/05/22 07:40:43;;;;;;;54.37;34.23;;;;;;;;;;4960163;29;20383;-74
2023/05/22 07:43:09;;;;;;;50.37;33.97;;;;;;;;;;4959972;29;20873;-74
2023/05/22 07:45:37;;;;;;;49.40;33.90;;;;;;;;;;4959351;29;20445;-74
2023/05/22 07:48:03;;;;;;;48.63;34.30;;;;;;;;;;4959083;29;20447;-74
2023/05/22 07:50:31;;;;;;;52.20;35.10;;;;;;;;;;4959002;29;20450;-74
2023/05/22 07:52:57;;;;;;;49.43;31.60;;;;;;;;;;4959531;29;20972;-74
2023/05/22 07:55:23;;;;;;;44.63;33.67;;;;;;;;;;4959893;29;20387;-74
2023/05/22 07:57:50;;;;;;;61.37;38.77;;;;;;;;;;4960899;29;20777;-74
2023/05/22 08:00:16;;;;;;;59.40;36.30;;;;;;;;;;4959303;29;20791;-74
2023/05/22 08:02:42;;;;;;;55.67;38.67;;;;;;;;;;4959324;29;20387;-74
2023/05/22 08:05:09;;;;;;;47.03;34.13;;;;;;;;;;4959008;29;20471;-75
2023/05/22 08:07:35;;;;;;;55.17;36.93;;;;;;;;;;4959024;29;20449;-74
2023/05/22 08:10:03;;;;;;;60.13;38.23;;;;;;;;;;4958681;29;20388;-74
2023/05/22 08:12:29;;;;;;;45.40;31.20;;;;;;;;;;4959037;29;20401;-74
2023/05/22 08:14:55;;;;;;;58.13;34.00;;;;;;;;;;4959483;29;20448;-74
2023/05/22 08:17:21;;;;;;;52.67;34.93;;;;;;;;;;4958643;29;20416;-74
2023/05/22 08:19:47;;;;;;;43.97;33.80;;;;;;;;;;4958822;29;20400;-74
2023/05/22 08:22:13;;;;;;;49.73;31.63;;;;;;;;;;4958189;28;20867;-74
2023/05/22 08:24:38;;;;;;;55.57;33.17;;;;;;;;;;4958114;29;20464;-74
2023/05/22 08:27:05;;;;;;;48.27;33.73;;;;;;;;;;4958705;29;20417;-74
2023/05/22 08:29:31;;;;;;;44.07;31.97;;;;;;;;;;4958570;29;20413;-74
2023/05/22 08:31:57;;;;;;;40.33;28.33;;;;;;;;;;4958645;29;20475;-74
2023/05/22 08:34:23;;;;;;;43.20;27.70;;;;;;;;;;4959188;29;20398;-75
2023/05/22 08:36:49;;;;;;;39.87;31.60;;;;;;;;;;4959445;29;20863;-74
2023/05/22 08:39:15;;;;;;;39.27;28.50;;;;;;;;;;4958633;29;20430;-74
2023/05/22 08:41:46;;;;;;;38.90;30.07;;;;;;;;;;4958883;29;20482;-74
2023/05/22 08:44:12;;;;;;;45.43;31.43;;;;;;;;;;4958499;29;20419;-74
2023/05/22 08:46:40;;;;;;;46.00;30.80;;;;;;;;;;4958273;29;20399;-74
2023/05/22 08:49:08;;;;;;;41.40;31.07;;;;;;;;;;4958567;29;20462;-74
2023/05/22 08:51:37;;;;;;;43.33;30.97;;;;;;;;;;4958720;29;20422;-74
2023/05/22 08:54:08;;;;;;;38.37;29.37;;;;;;;;;;4959145;29;20407;-74
2023/05/22 08:56:34;;;;;;;37.03;29.53;;;;;;;;;;4958873;29;20391;-74
2023/05/22 08:59:01;;;;;;;42.90;30.60;;;;;;;;;;4958358;29;20409;-74
2023/05/22 09:01:31;;;;;;;44.23;31.97;;;;;;;;;;4958041;29;20392;-74
2023/05/22 09:04:00;;;;;;;47.37;30.57;;;;;;;;;;4958195;29;20387;-74
2023/05/22 09:06:28;;;;;;;45.80;32.07;;;;;;;;;;4958261;29;20390;-74
2023/05/22 09:08:54;;;;;;;40.90;31.97;;;;;;;;;;4958675;29;20384;-74
2023/05/22 09:11:20;;;;;;;42.20;32.83;;;;;;;;;;4958673;29;20424;-74
2023/05/22 09:13:47;;;;;;;45.67;34.50;;;;;;;;;;4958317;29;20375;-74
2023/05/22 09:16:14;;;;;;;51.97;33.13;;;;;;;;;;4958349;29;20534;-74
2023/05/22 09:18:41;;;;;;;49.37;33.20;;;;;;;;;;4957719;29;20383;-74
2023/05/22 09:21:07;;;;;;;51.53;34.03;;;;;;;;;;4958652;29;20747;-74
2023/05/22 09:23:33;;;;;;;55.83;34.07;;;;;;;;;;4958285;29;20405;-74
2023/05/22 09:26:00;;;;;;;52.93;35.10;;;;;;;;;;4958096;29;20439;-74
2023/05/22 09:28:27;;;;;;;47.40;34.63;;;;;;;;;;4958052;29;20896;-74
2023/05/22 09:30:54;;;;;;;62.80;38.30;;;;;;;;;;4957947;29;20448;-74
2023/05/22 09:33:23;;;;;;;53.57;35.77;;;;;;;;;;4958143;28;20966;-74
2023/05/22 09:35:53;;;;;;;62.73;41.50;;;;;;;;;;4960778;29;20412;-74
2023/05/22 09:38:19;;;;;;;52.07;37.30;;;;;;;;;;4944568;29;20502;-74
2023/05/22 09:40:45;;;;;;;59.67;41.23;;;;;;;;;;4961069;29;20471;-74
2023/05/22 09:43:11;;;;;;;55.60;39.03;;;;;;;;;;4961795;29;20409;-74
2023/05/22 09:45:37;;;;;;;59.00;39.53;;;;;;;;;;4961522;29;20434;-74
2023/05/22 09:48:04;;;;;;;66.07;41.47;;;;;;;;;;4961829;29;20380;-74
2023/05/22 09:50:30;;;;;;;60.77;38.43;;;;;;;;;;4960767;29;20546;-74
2023/05/22 09:52:56;;;;;;;56.53;36.80;;;;;;;;;;4961379;29;20399;-74
2023/05/22 09:55:23;;;;;;;63.60;39.50;;;;;;;;;;4962032;29;20479;-74
2023/05/22 09:57:51;;;;;;;58.40;38.80;;;;;;;;;;4960895;29;20917;-74
2023/05/22 10:00:18;;;;;;;56.90;37.00;;;;;;;;;;4961434;29;20429;-73
2023/05/22 10:02:50;;;;;;;58.57;40.80;;;;;;;;;;4961237;29;20751;-74
2023/05/22 10:05:20;;;;;;;63.67;41.17;;;;;;;;;;4961433;29;20785;-74
2023/05/22 10:07:50;;;;;;;62.47;43.30;;;;;;;;;;4960634;29;20862;-74
2023/05/22 10:10:25;;;;;;;65.33;41.07;;;;;;;;;;4961586;29;20399;-74
2023/05/22 10:13:01;;;;;;;58.50;38.80;;;;;;;;;;4961057;29;20400;-74
2023/05/22 10:15:27;;;;;;;60.67;41.83;;;;;;;;;;4960931;29;20375;-75
2023/05/22 10:17:53;;;;;;;67.77;43.27;;;;;;;;;;4961189;29;20395;-74
2023/05/22 10:20:20;;;;;;;56.67;38.43;;;;;;;;;;4961527;29;20399;-74
2023/05/22 10:22:47;;;;;;;65.87;40.90;;;;;;;;;;4960984;29;20926;-74
2023/05/22 10:25:13;;;;;;;60.97;39.00;;;;;;;;;;4960873;29;20454;-74
2023/05/22 10:27:40;;;;;;;58.10;33.67;;;;;;;;;;4960791;29;20416;-74
2023/05/22 10:30:25;;;;;;;62.47;40.90;;;;;;;;;;4961197;29;20416;-74
2023/05/22 10:32:56;;;;;;;61.17;41.67;;;;;;;;;;4961284;29;20397;-74
2023/05/22 10:35:22;;;;;;;61.40;40.80;;;;;;;;;;4960972;29;20413;-74
2023/05/22 10:37:50;;;;;;;61.63;37.10;;;;;;;;;;4960667;29;20435;-74
2023/05/22 10:40:42;;;;;;;63.93;43.40;;;;;;;;;;4960965;29;20387;-74
2023/05/22 10:43:09;;;;;;;61.70;42.97;;;;;;;;;;4959139;29;20451;-74
2023/05/22 10:45:35;;;;;;;66.27;41.83;;;;;;;;;;4960399;28;20442;-74
2023/05/22 10:48:03;;;;;;;58.00;38.50;;;;;;;;;;4960513;29;20409;-74
2023/05/22 10:50:29;;;;;;;62.97;42.63;;;;;;;;;;4960422;29;20532;-74
2023/05/22 10:53:14;;;;;;;60.20;40.57;;;;;;;;;;4960243;29;20407;-74
2023/05/22 10:55:48;;;;;;;67.97;42.07;;;;;;;;;;4959817;29;20844;-74
2023/05/22 10:58:15;;;;;;;66.03;41.47;;;;;;;;;;4960354;29;20391;-74
2023/05/22 11:00:41;;;;;;;62.23;42.43;;;;;;;;;;4960030;29;20388;-74
2023/05/22 11:03:08;;;;;;;64.87;40.80;;;;;;;;;;4960554;29;20413;-74
2023/05/22 11:05:35;;;;;;;59.37;36.70;;;;;;;;;;4959790;29;20950;-74
2023/05/22 11:08:11;;;;;;;55.33;40.00;;;;;;;;;;4960611;29;20376;-74
2023/05/22 11:10:52;;;;;;;58.00;38.93;;;;;;;;;;4959575;29;20752;-74
2023/05/22 11:13:18;;;;;;;61.57;41.00;;;;;;;;;;4960090;29;20408;-74
2023/05/22 11:15:47;;;;;;;55.50;38.90;;;;;;;;;;4959090;29;20391;-74
2023/05/22 11:18:14;;;;;;;59.00;40.57;;;;;;;;;;4959867;29;20398;-74
2023/05/22 11:20:40;;;;;;;56.67;38.73;;;;;;;;;;4959379;29;20400;-72
2023/05/22 11:23:06;;;;;;;58.90;40.90;;;;;;;;;;4960187;29;20412;-72
2023/05/22 11:25:33;;;;;;;61.03;41.77;;;;;;;;;;4959422;29;20490;-73
2023/05/22 11:28:01;;;;;;;55.17;38.40;;;;;;;;;;4959178;29;20379;-73
2023/05/22 11:30:29;;;;;;;64.93;40.00;;;;;;;;;;4959498;29;20437;-72
2023/05/22 11:32:56;;;;;;;56.50;34.77;;;;;;;;;;4959522;29;20454;-72
2023/05/22 11:35:23;;;;;;;58.17;38.40;;;;;;;;;;4959368;29;20408;-73
2023/05/22 11:37:49;;;;;;;59.83;41.73;;;;;;;;;;4959370;29;20408;-72
2023/05/22 11:40:16;;;;;;;61.33;42.07;;;;;;;;;;4959699;29;20497;-73
2023/05/22 11:42:43;;;;;;;53.73;38.90;;;;;;;;;;4958775;29;20406;-73
2023/05/22 11:45:09;;;;;;;61.90;41.10;;;;;;;;;;4959191;29;20527;-72
2023/05/22 11:47:35;;;;;;;62.40;40.63;;;;;;;;;;4958793;29;20399;-73
2023/05/22 11:50:01;;;;;;;65.40;38.90;;;;;;;;;;4959133;29;20421;-73
2023/05/22 11:52:35;;;;;;;61.80;39.87;;;;;;;;;;4959250;29;20424;-73
2023/05/22 11:55:01;;;;;;;61.40;41.07;;;;;;;;;;4958737;29;20386;-74
2023/05/22 11:57:28;;;;;;;55.27;36.10;;;;;;;;;;4958494;28;20420;-74
2023/05/22 11:59:54;;;;;;;52.67;37.77;;;;;;;;;;4959436;29;20383;-75
2023/05/22 12:02:20;;;;;;;58.60;37.90;;;;;;;;;;4958544;29;20447;-72
2023/05/22 12:04:46;;;;;;;62.90;41.07;;;;;;;;;;4957637;29;20475;-75
2023/05/22 12:07:12;;;;;;;57.53;39.23;;;;;;;;;;4958287;29;20408;-72
2023/05/22 12:09:39;;;;;;;50.80;32.90;;;;;;;;;;4958545;29;20416;-75
2023/05/22 12:12:05;;;;;;;49.83;34.80;;;;;;;;;;4958486;29;20384;-74
2023/05/22 12:14:31;;;;;;;48.47;34.73;;;;;;;;;;4958461;29;20827;-72
2023/05/22 12:16:58;;;;;;;56.30;37.20;;;;;;;;;;4957744;29;20784;-72
2023/05/22 12:19:25;;;;;;;56.80;38.97;;;;;;;;;;4958730;29;20911;-72
2023/05/22 12:21:51;;;;;;;51.33;34.97;;;;;;;;;;4958253;29;20404;-73
2023/05/22 12:24:23;;;;;;;48.73;33.70;;;;;;;;;;4958332;29;20464;-72
2023/05/22 12:26:50;;;;;;;51.17;34.77;;;;;;;;;;4958162;29;20859;-72
2023/05/22 12:29:16;;;;;;;48.50;32.60;;;;;;;;;;4958203;29;20405;-72
2023/05/22 12:31:45;;;;;;;50.20;29.87;;;;;;;;;;4958212;29;20417;-72
2023/05/22 12:34:11;;;;;;;47.10;35.53;;;;;;;;;;4958284;29;20489;-72
2023/05/22 12:36:42;;;;;;;46.43;31.27;;;;;;;;;;4957623;29;20382;-74
2023/05/22 12:39:13;;;;;;;49.80;30.33;;;;;;;;;;4957625;29;20955;-75
2023/05/22 12:41:39;;;;;;;42.97;31.63;;;;;;;;;;4957758;29;20535;-75
2023/05/22 12:44:05;;;;;;;50.90;32.20;;;;;;;;;;4957610;29;20485;-75
2023/05/22 12:46:32;;;;;;;49.33;34.87;;;;;;;;;;4957598;29;20458;-75
2023/05/22 12:48:58;;;;;;;52.20;35.80;;;;;;;;;;4957651;29;20467;-75
2023/05/22 12:51:28;;;;;;;51.73;35.63;;;;;;;;;;4957144;29;20472;-75
2023/05/22 12:53:55;;;;;;;49.80;35.93;;;;;;;;;;4957154;29;20452;-75
2023/05/22 12:56:21;;;;;;;42.70;29.90;;;;;;;;;;4956966;29;20428;-75
2023/05/22 12:58:47;;;;;;;54.17;36.50;;;;;;;;;;4957155;29;20417;-75
2023/05/22 13:01:14;;;;;;;49.87;36.03;;;;;;;;;;4957220;29;20409;-75
2023/05/22 13:03:40;;;;;;;52.30;35.50;;;;;;;;;;4957189;29;20472;-75
2023/05/22 13:06:06;;;;;;;56.97;36.97;;;;;;;;;;4957257;29;20550;-75
2023/05/22 13:08:32;;;;;;;46.30;31.07;;;;;;;;;;4957841;28;20394;-74
2023/05/22 13:10:58;;;;;;;55.23;35.67;;;;;;;;;;4960622;29;20487;-75
2023/05/22 13:13:24;;;;;;;55.27;33.07;;;;;;;;;;4961006;29;20896;-71
2023/05/22 13:15:50;;;;;;;56.33;36.70;;;;;;;;;;4960774;29;20735;-73
2023/05/22 13:18:16;;;;;;;52.03;33.73;;;;;;;;;;4960882;29;20879;-74
2023/05/22 13:20:42;;;;;;;54.43;37.47;;;;;;;;;;4960711;29;20420;-75
2023/05/22 13:23:08;;;;;;;45.53;34.23;;;;;;;;;;4960696;29;20529;-74
2023/05/22 13:25:34;;;;;;;56.13;37.43;;;;;;;;;;4960974;29;20460;-75
2023/05/22 13:28:00;;;;;;;49.10;35.07;;;;;;;;;;4960666;29;20412;-75
2023/05/22 13:30:27;;;;;;;58.43;39.10;;;;;;;;;;4960467;29;20499;-75
2023/05/22 13:32:53;;;;;;;53.87;35.03;;;;;;;;;;4960431;29;20983;-75
2023/05/22 13:35:19;;;;;;;59.77;35.97;;;;;;;;;;4960609;29;20467;-75
2023/05/22 13:37:45;;;;;;;54.97;36.63;;;;;;;;;;4960585;29;20868;-75
2023/05/22 13:40:12;;;;;;;61.43;40.10;;;;;;;;;;4960286;29;20901;-75
2023/05/22 13:42:38;;;;;;;61.10;39.47;;;;;;;;;;4960593;29;20403;-77
2023/05/22 13:45:04;;;;;;;74.47;43.80;;;;;;;;;;4960421;29;20472;-75
2023/05/22 13:47:31;;;;;;;62.40;40.07;;;;;;;;;;4959954;29;20475;-75
2023/05/22 13:49:57;;;;;;;62.77;38.23;;;;;;;;;;4959760;29;20512;-74
2023/05/22 13:52:23;;;;;;;64.23;38.90;;;;;;;;;;4960552;29;20447;-75
2023/05/22 13:54:49;;;;;;;59.67;39.60;;;;;;;;;;4959773;29;20452;-74
2023/05/22 13:57:15;;;;;;;63.60;38.60;;;;;;;;;;4960231;29;20375;-75
2023/05/22 13:59:41;;;;;;;65.07;39.23;;;;;;;;;;4960282;29;20408;-75
2023/05/22 14:02:07;;;;;;;61.10;37.33;;;;;;;;;;4959748;29;20439;-75
2023/05/22 14:04:33;;;;;;;66.90;37.23;;;;;;;;;;4959963;29;20460;-74
2023/05/22 14:06:59;;;;;;;65.13;38.63;;;;;;;;;;4959584;29;20396;-75
2023/05/22 14:09:26;;;;;;;58.27;36.10;;;;;;;;;;4959839;29;20419;-74
2023/05/22 14:11:52;;;;;;;65.77;37.33;;;;;;;;;;4959672;29;20463;-75
2023/05/22 14:14:22;;;;;;;54.40;33.37;;;;;;;;;;4959852;29;20752;-75